^^
Saratoga-Weather Station Historical Data
Daily Summary for March 9, 2020 Units:  Metric    English   Both
Daily Weekly Monthly Yearly Custom
  High: Low: Average:
Temperature: 29.9 °C 15.6 °C 22.8 °C
Dew Point: 17.6 °C 14.3 °C 15.5 °C
Humidity: 94% 40% 67%
Wind Speed: 17.7km/h 0km/h 3.9km/h
Wind Gust: 25.7km/h - -
Wind- - WNW
Pressure: 1016.3 hPa 1009.8 hPa -
Precipitation: 0.0 mm    
Historical Graphs
 
 
Tabular Data for March 9, 2020
Time Temperature Dew Point Pressure Wind Wind Speed Wind Gust Humidity Rainfall Rate (Hourly) solar
00:03 17.8 °C 15.2 °C 1016.3 hPa Calm     85% 0.0 mm 0 W/m2
00:08 17.7 °C 15.3 °C 1016.3 hPa Calm     86% 0.0 mm 0 W/m2
00:13 17.6 °C 15.2 °C 1015.9 hPa Calm     86% 0.0 mm 0 W/m2
00:18 17.6 °C 15.2 °C 1015.9 hPa Calm     86% 0.0 mm 0 W/m2
00:23 17.4 °C 15 °C 1015.9 hPa Calm     86% 0.0 mm 0 W/m2
00:28 17.3 °C 15.1 °C 1015.9 hPa Calm     87% 0.0 mm 0 W/m2
00:33 17.2 °C 15 °C 1015.9 hPa Calm     87% 0.0 mm 0 W/m2
00:38 17.1 °C 14.9 °C 1015.9 hPa Calm     87% 0.0 mm 0 W/m2
00:44 16.9 °C 14.9 °C 1015.9 hPa Calm     88% 0.0 mm 0 W/m2
00:49 16.8 °C 14.8 °C 1015.9 hPa Calm     88% 0.0 mm 0 W/m2
00:54 16.7 °C 14.7 °C 1015.9 hPa Calm     88% 0.0 mm 0 W/m2
00:59 16.7 °C 14.9 °C 1015.9 hPa Calm     89% 0.0 mm 0 W/m2
01:04 16.6 °C 14.8 °C 1016.3 hPa Calm     89% 0.0 mm 0 W/m2
01:09 16.4 °C 14.8 °C 1015.9 hPa Calm     90% 0.0 mm 0 W/m2
01:14 16.3 °C 14.7 °C 1016.3 hPa Calm     90% 0.0 mm 0 W/m2
01:19 16.2 °C 14.6 °C 1015.9 hPa Calm     90% 0.0 mm 0 W/m2
01:24 16.2 °C 14.6 °C 1015.9 hPa Calm     90% 0.0 mm 0 W/m2
01:29 16.1 °C 14.6 °C 1015.9 hPa Calm     91% 0.0 mm 0 W/m2
01:34 16 °C 14.5 °C 1015.9 hPa Calm     91% 0.0 mm 0 W/m2
01:39 15.9 °C 14.4 °C 1015.9 hPa Calm     91% 0.0 mm 0 W/m2
01:44 15.9 °C 14.6 °C 1015.9 hPa Calm     92% 0.0 mm 0 W/m2
01:49 15.8 °C 14.5 °C 1015.9 hPa Calm     92% 0.0 mm 0 W/m2
01:54 15.8 °C 14.5 °C 1015.9 hPa Calm     92% 0.0 mm 0 W/m2
01:59 15.8 °C 14.5 °C 1015.9 hPa Calm     92% 0.0 mm 0 W/m2
02:09 15.6 °C 14.3 °C 1015.6 hPa Calm     92% 0.0 mm 0 W/m2
02:14 15.6 °C 14.3 °C 1015.6 hPa Calm     92% 0.0 mm 0 W/m2
02:19 15.6 °C 14.5 °C 1015.6 hPa Calm     93% 0.0 mm 0 W/m2
02:24 15.6 °C 14.5 °C 1015.6 hPa Calm     93% 0.0 mm 0 W/m2
02:29 15.6 °C 14.5 °C 1015.6 hPa Calm     93% 0.0 mm 0 W/m2
02:34 15.6 °C 14.5 °C 1015.2 hPa Calm     93% 0.0 mm 0 W/m2
02:39 15.6 °C 14.6 °C 1015.2 hPa Calm     94% 0.0 mm 0 W/m2
02:44 15.6 °C 14.6 °C 1015.2 hPa Calm     94% 0.0 mm 0 W/m2
02:49 15.7 °C 14.6 °C 1015.2 hPa Calm     93% 0.0 mm 0 W/m2
02:54 15.7 °C 14.6 °C 1015.2 hPa Calm     93% 0.0 mm 0 W/m2
02:59 15.7 °C 14.6 °C 1015.2 hPa Calm     93% 0.0 mm 0 W/m2
03:04 15.7 °C 14.6 °C 1015.2 hPa Calm     93% 0.0 mm 0 W/m2
03:09 15.7 °C 14.6 °C 1015.2 hPa Calm   1.6 km/h 93% 0.0 mm 0 W/m2
03:14 15.7 °C 14.4 °C 1015.2 hPa Calm   1.6 km/h 92% 0.0 mm 0 W/m2
03:19 15.7 °C 14.4 °C 1015.2 hPa Calm     92% 0.0 mm 0 W/m2
03:24 15.7 °C 14.4 °C 1015.2 hPa Calm     92% 0.0 mm 0 W/m2
03:29 15.6 °C 14.3 °C 1015.2 hPa Calm     92% 0.0 mm 0 W/m2
03:34 15.6 °C 14.3 °C 1015.2 hPa Calm     92% 0.0 mm 0 W/m2
03:39 15.6 °C 14.3 °C 1015.2 hPa Calm     92% 0.0 mm 0 W/m2
03:44 15.6 °C 14.5 °C 1015.2 hPa Calm     93% 0.0 mm 0 W/m2
03:49 15.6 °C 14.5 °C 1015.2 hPa Calm     93% 0.0 mm 0 W/m2
03:54 15.6 °C 14.5 °C 1015.2 hPa Calm     93% 0.0 mm 0 W/m2
03:59 15.6 °C 14.5 °C 1015.2 hPa Calm     93% 0.0 mm 0 W/m2
04:04 15.6 °C 14.5 °C 1015.2 hPa Calm     93% 0.0 mm 0 W/m2
04:09 15.7 °C 14.6 °C 1015.2 hPa Calm     93% 0.0 mm 0 W/m2
04:14 15.7 °C 14.6 °C 1015.2 hPa Calm     93% 0.0 mm 0 W/m2
04:19 15.7 °C 14.6 °C 1015.2 hPa Calm     93% 0.0 mm 0 W/m2
04:24 15.7 °C 14.6 °C 1015.2 hPa Calm     93% 0.0 mm 0 W/m2
04:29 15.8 °C 14.7 °C 1015.2 hPa Calm     93% 0.0 mm 0 W/m2
04:34 15.8 °C 14.7 °C 1015.2 hPa Calm   1.6 km/h 93% 0.0 mm 0 W/m2
04:39 16 °C 14.9 °C 1015.2 hPa Calm   1.6 km/h 93% 0.0 mm 0 W/m2
04:44 16.3 °C 15.2 °C 1015.2 hPa WNW 1.4 km/h 6.4 km/h 93% 0.0 mm 0 W/m2
04:49 16.7 °C 15.6 °C 1015.2 hPa WNW 3.2 km/h 3.2 km/h 93% 0.0 mm 0 W/m2
04:54 16.9 °C 15.6 °C 1015.2 hPa WNW 1.4 km/h 6.4 km/h 92% 0.0 mm 0 W/m2
04:59 17.1 °C 15.6 °C 1015.2 hPa WNW 3.2 km/h 6.4 km/h 91% 0.0 mm 0 W/m2
05:04 17.2 °C 15.5 °C 1015.2 hPa West 3.2 km/h 3.2 km/h 90% 0.0 mm 0 W/m2
05:09 17.2 °C 15.5 °C 1015.2 hPa West 1.4 km/h 6.4 km/h 90% 0.0 mm 0 W/m2
05:14 17.3 °C 15.6 °C 1015.2 hPa WSW 1.4 km/h 4.8 km/h 90% 0.0 mm 0 W/m2
05:19 17.3 °C 15.5 °C 1015.2 hPa Calm     89% 0.0 mm 0 W/m2
05:24 17.3 °C 15.5 °C 1015.2 hPa Calm     89% 0.0 mm 0 W/m2
05:29 17.3 °C 15.5 °C 1015.2 hPa Calm   1.6 km/h 89% 0.0 mm 0 W/m2
05:34 17.3 °C 15.5 °C 1015.2 hPa Calm     89% 0.0 mm 0 W/m2
05:39 17.2 °C 15.2 °C 1015.2 hPa WNW 1.4 km/h 3.2 km/h 88% 0.0 mm 0 W/m2
05:44 17.1 °C 15.3 °C 1015.2 hPa WNW 1.4 km/h 1.6 km/h 89% 0.0 mm 0 W/m2
05:50 17.1 °C 15.3 °C 1015.2 hPa Calm   3.2 km/h 89% 0.0 mm 0 W/m2
05:55 16.9 °C 15.1 °C 1015.2 hPa Calm   1.6 km/h 89% 0.0 mm 5 W/m2
06:00 16.9 °C 15.1 °C 1015.2 hPa Calm   1.6 km/h 89% 0.0 mm 5 W/m2
06:05 16.8 °C 15 °C 1015.2 hPa Calm     89% 0.0 mm 7 W/m2
06:10 16.8 °C 15 °C 1015.2 hPa Calm     89% 0.0 mm 14 W/m2
06:15 16.7 °C 15.1 °C 1015.2 hPa Calm     90% 0.0 mm 14 W/m2
06:20 16.6 °C 15 °C 1015.2 hPa Calm     90% 0.0 mm 23 W/m2
06:25 16.6 °C 15 °C 1015.2 hPa West 1.4 km/h 1.6 km/h 90% 0.0 mm 32 W/m2
06:30 16.7 °C 15.2 °C 1015.2 hPa Calm   4.8 km/h 91% 0.0 mm 35 W/m2
06:35 16.8 °C 15.1 °C 1015.2 hPa Calm   1.6 km/h 90% 0.0 mm 37 W/m2
06:40 16.8 °C 15.1 °C 1015.2 hPa Calm   4.8 km/h 90% 0.0 mm 39 W/m2
06:45 16.8 °C 15.1 °C 1015.2 hPa Calm     90% 0.0 mm 44 W/m2
06:50 16.8 °C 15.1 °C 1015.2 hPa Calm     90% 0.0 mm 53 W/m2
07:00 17.2 °C 15.5 °C 1015.2 hPa WNW 3.2 km/h 3.2 km/h 90% 0.0 mm 47 W/m2
07:05 17.3 °C 15.5 °C 1015.2 hPa NW 3.2 km/h 3.2 km/h 89% 0.0 mm 39 W/m2
07:10 17.4 °C 15.6 °C 1015.2 hPa Calm     89% 0.0 mm 42 W/m2
07:20 17.4 °C 15.4 °C 1015.2 hPa Calm     88% 0.0 mm 69 W/m2
07:25 17.6 °C 15.8 °C 1015.2 hPa NW 4.7 km/h 4.8 km/h 89% 0.0 mm 69 W/m2
07:30 17.7 °C 15.7 °C 1015.2 hPa Calm   1.6 km/h 88% 0.0 mm 67 W/m2
07:35 17.8 °C 15.8 °C 1015.2 hPa North 1.4 km/h 4.8 km/h 88% 0.0 mm 67 W/m2
07:40 17.9 °C 15.9 °C 1015.2 hPa North 1.4 km/h 1.6 km/h 88% 0.0 mm 77 W/m2
07:45 18.1 °C 16.1 °C 1015.2 hPa East 4.7 km/h 6.4 km/h 88% 0.0 mm 72 W/m2
07:50 18.3 °C 16.1 °C 1015.2 hPa Calm   3.2 km/h 87% 0.0 mm 76 W/m2
07:55 18.6 °C 16.2 °C 1015.2 hPa Calm   6.4 km/h 86% 0.0 mm 83 W/m2
08:01 18.8 °C 16.4 °C 1015.2 hPa NW 4.7 km/h 6.4 km/h 86% 0.0 mm 269 W/m2
08:06 19.2 °C 16.6 °C 1015.2 hPa NNW 4.7 km/h 4.8 km/h 85% 0.0 mm 255 W/m2
08:11 19.4 °C 16.6 °C 1015.2 hPa NW 1.4 km/h 3.2 km/h 84% 0.0 mm 297 W/m2
08:16 19.6 °C 16.6 °C 1015.2 hPa NW 6.4 km/h 11.3 km/h 83% 0.0 mm 295 W/m2
08:21 19.8 °C 16.8 °C 1015.2 hPa WNW 3.2 km/h 6.4 km/h 83% 0.0 mm 229 W/m2
08:26 20.1 °C 16.9 °C 1015.2 hPa WSW 1.4 km/h 8 km/h 82% 0.0 mm 93 W/m2
08:31 20.3 °C 16.7 °C 1015.2 hPa West 9.7 km/h 16.1 km/h 80% 0.0 mm 49 W/m2
08:37 20.3 °C 16.7 °C 1015.2 hPa WNW 3.2 km/h 4.8 km/h 80% 0.0 mm 47 W/m2
08:42 20.3 °C 16.7 °C 1015.2 hPa NW 3.2 km/h 16.1 km/h 80% 0.0 mm 49 W/m2
08:47 20.4 °C 16.8 °C 1015.2 hPa WNW 6.4 km/h 11.3 km/h 80% 0.0 mm 51 W/m2
08:52 20.6 °C 17 °C 1014.9 hPa West 9.7 km/h 11.3 km/h 80% 0.0 mm 53 W/m2
08:57 20.6 °C 16.8 °C 1014.9 hPa WNW 4.7 km/h 11.3 km/h 79% 0.0 mm 56 W/m2
09:02 20.7 °C 17.1 °C 1014.9 hPa WNW 4.7 km/h 6.4 km/h 80% 0.0 mm 63 W/m2
09:07 20.8 °C 17 °C 1014.9 hPa WNW 1.4 km/h 4.8 km/h 79% 0.0 mm 63 W/m2
09:12 21.1 °C 16.9 °C 1014.9 hPa NNW 14.3 km/h 14.5 km/h 77% 0.0 mm 105 W/m2
09:17 21.1 °C 16.7 °C 1014.9 hPa West 9.7 km/h 17.7 km/h 76% 0.0 mm 283 W/m2
09:22 21.1 °C 16.9 °C 1014.9 hPa WNW 7.9 km/h 12.9 km/h 77% 0.0 mm 418 W/m2
09:27 21.3 °C 17.1 °C 1014.9 hPa WNW 1.4 km/h 17.7 km/h 77% 0.0 mm 490 W/m2
09:32 21.5 °C 16.9 °C 1014.9 hPa WSW 7.9 km/h 11.3 km/h 75% 0.0 mm 485 W/m2
09:37 21.6 °C 17 °C 1014.9 hPa SW 7.9 km/h 11.3 km/h 75% 0.0 mm 527 W/m2
09:42 21.7 °C 16.9 °C 1014.9 hPa WNW 13 km/h 16.1 km/h 74% 0.0 mm 555 W/m2
09:47 21.7 °C 16.9 °C 1014.9 hPa NNW 4.7 km/h 11.3 km/h 74% 0.0 mm 566 W/m2
09:52 21.8 °C 17 °C 1014.6 hPa West 11.1 km/h 14.5 km/h 74% 0.0 mm 570 W/m2
09:57 22.1 °C 17.2 °C 1014.6 hPa NW 4.7 km/h 6.4 km/h 74% 0.0 mm 594 W/m2
10:02 22.3 °C 17.4 °C 1014.6 hPa West 4.7 km/h 8 km/h 74% 0.0 mm 606 W/m2
10:07 22.4 °C 16.9 °C 1014.9 hPa WNW 6.4 km/h 14.5 km/h 71% 0.0 mm 526 W/m2
10:12 22.6 °C 17.3 °C 1014.9 hPa NNW 6.4 km/h 11.3 km/h 72% 0.0 mm 83 W/m2
10:17 22.7 °C 17.2 °C 1014.9 hPa West 4.7 km/h 8 km/h 71% 0.0 mm 93 W/m2
10:22 22.8 °C 17.3 °C 1014.9 hPa West 6.4 km/h 11.3 km/h 71% 0.0 mm 621 W/m2
10:27 22.9 °C 17.4 °C 1014.9 hPa West 6.4 km/h 9.7 km/h 71% 0.0 mm 647 W/m2
10:32 23.1 °C 17.6 °C 1014.9 hPa SE 4.7 km/h 4.8 km/h 71% 0.0 mm 666 W/m2
10:37 23.4 °C 17.4 °C 1014.9 hPa NW 9.7 km/h 16.1 km/h 69% 0.0 mm 691 W/m2
10:42 23.3 °C 16.8 °C 1014.9 hPa WNW 4.7 km/h 14.5 km/h 67% 0.0 mm 677 W/m2
10:47 23.3 °C 17.3 °C 1014.9 hPa NW 4.7 km/h 14.5 km/h 69% 0.0 mm 687 W/m2
10:53 23.4 °C 17.4 °C 1014.9 hPa West 3.2 km/h 14.5 km/h 69% 0.0 mm 740 W/m2
10:58 23.5 °C 17.5 °C 1014.9 hPa WNW 4.7 km/h 9.7 km/h 69% 0.0 mm 742 W/m2
11:03 23.4 °C 16.9 °C 1014.6 hPa NW 6.4 km/h 16.1 km/h 67% 0.0 mm 749 W/m2
11:08 23.6 °C 17.1 °C 1014.6 hPa West 11.1 km/h 14.5 km/h 67% 0.0 mm 770 W/m2
11:13 23.9 °C 16.9 °C 1014.6 hPa NW 9.7 km/h 12.9 km/h 65% 0.0 mm 795 W/m2
11:18 24.2 °C 17 °C 1014.6 hPa WNW 6.4 km/h 17.7 km/h 64% 0.0 mm 816 W/m2
11:23 24.4 °C 16.6 °C 1014.6 hPa WNW 7.9 km/h 11.3 km/h 62% 0.0 mm 694 W/m2
11:28 24.4 °C 16.9 °C 1014.6 hPa WNW 4.7 km/h 16.1 km/h 63% 0.0 mm 782 W/m2
11:33 24.6 °C 17.1 °C 1014.6 hPa NW 9.7 km/h 12.9 km/h 63% 0.0 mm 793 W/m2
11:38 24.7 °C 16.1 °C 1014.6 hPa NW 4.7 km/h 14.5 km/h 59% 0.0 mm 452 W/m2
11:43 24.7 °C 16.1 °C 1014.6 hPa West 9.7 km/h 16.1 km/h 59% 0.0 mm 784 W/m2
11:48 24.7 °C 15.9 °C 1014.6 hPa WNW 6.4 km/h 12.9 km/h 58% 0.0 mm 793 W/m2
11:53 24.8 °C 16.5 °C 1014.2 hPa WNW 11.1 km/h 19.3 km/h 60% 0.0 mm 802 W/m2
11:58 25.1 °C 16 °C 1014.2 hPa West 6.4 km/h 17.7 km/h 57% 0.0 mm 809 W/m2
12:03 25.3 °C 16.7 °C 1014.2 hPa WSW 3.2 km/h 19.3 km/h 59% 0.0 mm 817 W/m2
12:08 25.4 °C 16.5 °C 1014.2 hPa West 11.1 km/h 11.3 km/h 58% 0.0 mm 823 W/m2
12:13 25.7 °C 16 °C 1014.2 hPa WNW 11.1 km/h 19.3 km/h 55% 0.0 mm 824 W/m2
12:18 25.7 °C 16 °C 1014.2 hPa WNW 13 km/h 17.7 km/h 55% 0.0 mm 828 W/m2
12:23 25.8 °C 16.1 °C 1014.2 hPa NW 1.4 km/h 4.8 km/h 55% 0.0 mm 838 W/m2
12:28 25.9 °C 15.9 °C 1014.2 hPa WNW 11.1 km/h 12.9 km/h 54% 0.0 mm 838 W/m2
12:33 26.2 °C 16.4 °C 1014.2 hPa WNW 1.4 km/h 14.5 km/h 55% 0.0 mm 846 W/m2
12:38 26.4 °C 15.8 °C 1014.2 hPa WNW 4.7 km/h 8 km/h 52% 0.0 mm 854 W/m2
12:43 26.5 °C 15.5 °C 1014.2 hPa NW 9.7 km/h 24.1 km/h 51% 0.0 mm 861 W/m2
12:48 26.3 °C 15.4 °C 1014.2 hPa WSW 13 km/h 17.7 km/h 51% 0.0 mm 846 W/m2
12:53 26.4 °C 15.4 °C 1013.9 hPa WSW 6.4 km/h 14.5 km/h 51% 0.0 mm 888 W/m2
12:58 26.6 °C 15.9 °C 1014.2 hPa West 11.1 km/h 16.1 km/h 52% 0.0 mm 900 W/m2
13:08 26.7 °C 16 °C 1013.9 hPa WNW 13 km/h 16.1 km/h 52% 0.0 mm 350 W/m2
13:13 26.8 °C 16.1 °C 1013.9 hPa WNW 3.2 km/h 11.3 km/h 52% 0.0 mm 951 W/m2
13:18 27.2 °C 15.9 °C 1013.9 hPa NW 7.9 km/h 17.7 km/h 50% 0.0 mm 1004 W/m2
13:23 26.8 °C 16.1 °C 1013.9 hPa West 9.7 km/h 25.7 km/h 52% 0.0 mm 253 W/m2
13:28 26.9 °C 16.2 °C 1013.9 hPa NW 6.4 km/h 6.4 km/h 52% 0.0 mm 928 W/m2
13:33 27.1 °C 16.1 °C 1013.9 hPa WNW 3.2 km/h 25.7 km/h 51% 0.0 mm 928 W/m2
13:38 27.2 °C 16.2 °C 1013.9 hPa WNW 6.4 km/h 11.3 km/h 51% 0.0 mm 1028 W/m2
13:43 27.4 °C 16.4 °C 1013.9 hPa WNW 3.2 km/h 14.5 km/h 51% 0.0 mm 200 W/m2
13:48 27.6 °C 16.2 °C 1013.5 hPa NNW 4.7 km/h 17.7 km/h 50% 0.0 mm 169 W/m2
13:53 26.9 °C 15.6 °C 1013.5 hPa WNW 3.2 km/h 20.9 km/h 50% 0.0 mm 179 W/m2
13:58 27 °C 16 °C 1013.5 hPa WNW 17.7 km/h 22.5 km/h 51% 0.0 mm 928 W/m2
14:03 27.3 °C 16.3 °C 1013.5 hPa WSW 6.4 km/h 16.1 km/h 51% 0.0 mm 930 W/m2
14:08 27.2 °C 16.2 °C 1013.5 hPa West 4.7 km/h 6.4 km/h 51% 0.0 mm 916 W/m2
14:13 27.4 °C 15.7 °C 1013.5 hPa WSW 7.9 km/h 14.5 km/h 49% 0.0 mm 940 W/m2
14:18 27.6 °C 15.6 °C 1013.5 hPa SW 3.2 km/h 22.5 km/h 48% 0.0 mm 983 W/m2
14:23 27.8 °C 15.8 °C 1013.5 hPa West 9.7 km/h 9.7 km/h 48% 0.0 mm 928 W/m2
14:28 28.1 °C 16.1 °C 1013.5 hPa NW 3.2 km/h 16.1 km/h 48% 0.0 mm 923 W/m2
14:33 28.2 °C 15.8 °C 1013.5 hPa NNW 7.9 km/h 8 km/h 47% 0.0 mm 925 W/m2
14:38 28.2 °C 15.8 °C 1013.5 hPa NW 7.9 km/h 16.1 km/h 47% 0.0 mm 962 W/m2
14:43 28.2 °C 15.5 °C 1013.2 hPa West 4.7 km/h 11.3 km/h 46% 0.0 mm 991 W/m2
14:48 27.8 °C 15.8 °C 1013.2 hPa NW 11.1 km/h 14.5 km/h 48% 0.0 mm 944 W/m2
14:53 27.8 °C 15.8 °C 1013.2 hPa WNW 6.4 km/h 17.7 km/h 48% 0.0 mm 179 W/m2
14:58 27.7 °C 15.7 °C 1013.2 hPa NNW 3.2 km/h 11.3 km/h 48% 0.0 mm 900 W/m2
15:03 27.9 °C 15.5 °C 1013.2 hPa West 13 km/h 12.9 km/h 47% 0.0 mm 977 W/m2
15:08 28.4 °C 16.3 °C 1013.2 hPa WNW 3.2 km/h 16.1 km/h 48% 0.0 mm 919 W/m2
15:13 28.5 °C 15.8 °C 1013.2 hPa SW 9.7 km/h 16.1 km/h 46% 0.0 mm 983 W/m2
15:18 28.4 °C 15.7 °C 1012.9 hPa NW 6.4 km/h 12.9 km/h 46% 0.0 mm 898 W/m2
15:23 28.4 °C 16 °C 1012.9 hPa WSW 14.3 km/h 16.1 km/h 47% 0.0 mm 886 W/m2
15:28 28.6 °C 15.5 °C 1012.9 hPa North 7.9 km/h 14.5 km/h 45% 0.0 mm 870 W/m2
15:33 28.8 °C 15.7 °C 1012.9 hPa NNW 7.9 km/h 16.1 km/h 45% 0.0 mm 844 W/m2
15:38 28.7 °C 15.6 °C 1012.9 hPa WNW 16.3 km/h 19.3 km/h 45% 0.0 mm 121 W/m2
15:43 28.4 °C 15.3 °C 1012.9 hPa WNW 6.4 km/h 14.5 km/h 45% 0.0 mm 877 W/m2
15:48 28.6 °C 15.5 °C 1012.9 hPa WNW 4.7 km/h 14.5 km/h 45% 0.0 mm 828 W/m2
15:53 28.8 °C 15.7 °C 1012.9 hPa WSW 6.4 km/h 16.1 km/h 45% 0.0 mm 837 W/m2
15:58 28.9 °C 15.8 °C 1012.9 hPa West 6.4 km/h 16.1 km/h 45% 0.0 mm 831 W/m2
16:03 29.1 °C 15.6 °C 1012.9 hPa WNW 14.3 km/h 16.1 km/h 44% 0.0 mm 867 W/m2
16:08 28.9 °C 15.8 °C 1012.9 hPa WSW 7.9 km/h 12.9 km/h 45% 0.0 mm 916 W/m2
16:13 28.9 °C 15.4 °C 1012.9 hPa NNW 1.4 km/h 14.5 km/h 44% 0.0 mm 803 W/m2
16:18 29 °C 15.2 °C 1012.9 hPa WNW 16.3 km/h 17.7 km/h 43% 0.0 mm 795 W/m2
16:23 29.2 °C 15 °C 1012.5 hPa WNW 14.3 km/h 17.7 km/h 42% 0.0 mm 784 W/m2
16:28 29.4 °C 15.1 °C 1012.5 hPa WNW 4.7 km/h 19.3 km/h 42% 0.0 mm 772 W/m2
16:33 29.3 °C 15.4 °C 1012.5 hPa SW 4.7 km/h 12.9 km/h 43% 0.0 mm 759 W/m2
16:38 29.3 °C 15.1 °C 1012.5 hPa NW 7.9 km/h 20.9 km/h 42% 0.0 mm 729 W/m2
16:43 29.2 °C 15.3 °C 1012.5 hPa WNW 14.3 km/h 14.5 km/h 43% 0.0 mm 731 W/m2
16:48 29.1 °C 15.2 °C 1012.2 hPa West 4.7 km/h 20.9 km/h 43% 0.0 mm 707 W/m2
16:59 29.4 °C 14.8 °C 1012.2 hPa WNW 13 km/h 19.3 km/h 41% 0.0 mm 696 W/m2
17:04 29.5 °C 15.2 °C 1012.2 hPa Calm   17.7 km/h 42% 0.0 mm 705 W/m2
17:09 29.6 °C 15.3 °C 1012.2 hPa WNW 11.1 km/h 20.9 km/h 42% 0.0 mm 684 W/m2
17:14 29.6 °C 15 °C 1012.2 hPa WNW 11.1 km/h 22.5 km/h 41% 0.0 mm 701 W/m2
17:19 29.6 °C 15 °C 1011.9 hPa WSW 7.9 km/h 9.7 km/h 41% 0.0 mm 649 W/m2
17:24 29.6 °C 15 °C 1011.9 hPa WNW 7.9 km/h 22.5 km/h 41% 0.0 mm 635 W/m2
17:29 29.4 °C 15.1 °C 1011.9 hPa WNW 4.7 km/h 9.7 km/h 42% 0.0 mm 606 W/m2
17:34 29.6 °C 15.7 °C 1011.9 hPa WNW 3.2 km/h 4.8 km/h 43% 0.0 mm 610 W/m2
17:39 29.9 °C 14.8 °C 1011.9 hPa NW 6.4 km/h 14.5 km/h 40% 0.0 mm 603 W/m2
17:44 29.7 °C 15 °C 1011.9 hPa West 6.4 km/h 14.5 km/h 41% 0.0 mm 571 W/m2
17:49 29.7 °C 14.7 °C 1011.5 hPa NW 7.9 km/h 16.1 km/h 40% 0.0 mm 554 W/m2
17:54 29.5 °C 14.5 °C 1011.9 hPa WNW 14.3 km/h 20.9 km/h 40% 0.0 mm 547 W/m2
17:59 29.4 °C 14.8 °C 1011.5 hPa West 11.1 km/h 16.1 km/h 41% 0.0 mm 531 W/m2
18:04 29.4 °C 14.8 °C 1011.5 hPa NW 9.7 km/h 16.1 km/h 41% 0.0 mm 522 W/m2
18:09 29.3 °C 14.3 °C 1011.5 hPa WNW 7.9 km/h 19.3 km/h 40% 0.0 mm 506 W/m2
18:14 29.3 °C 14.3 °C 1011.5 hPa WNW 9.7 km/h 14.5 km/h 40% 0.0 mm 504 W/m2
18:19 29.4 °C 14.8 °C 1011.5 hPa West 9.7 km/h 9.7 km/h 41% 0.0 mm 487 W/m2
18:24 29.7 °C 14.7 °C 1011.5 hPa WSW 7.9 km/h 12.9 km/h 40% 0.0 mm 471 W/m2
18:30 29.7 °C 14.7 °C 1011.5 hPa West 4.7 km/h 12.9 km/h 40% 0.0 mm 448 W/m2
18:35 29.7 °C 15 °C 1011.2 hPa NNW 3.2 km/h 9.7 km/h 41% 0.0 mm 408 W/m2
18:40 29.8 °C 14.7 °C 1011.2 hPa WNW 6.4 km/h 17.7 km/h 40% 0.0 mm 369 W/m2
18:45 29.6 °C 15 °C 1011.2 hPa WNW 3.2 km/h 14.5 km/h 41% 0.0 mm 339 W/m2
18:50 29.4 °C 14.8 °C 1011.2 hPa West 6.4 km/h 11.3 km/h 41% 0.0 mm 325 W/m2
18:55 29.2 °C 14.6 °C 1011.2 hPa NW 6.4 km/h 14.5 km/h 41% 0.0 mm 302 W/m2
19:00 29.2 °C 15 °C 1011.2 hPa North 1.4 km/h 6.4 km/h 42% 0.0 mm 77 W/m2
19:05 29.3 °C 14.7 °C 1011.2 hPa SW 6.4 km/h 6.4 km/h 41% 0.0 mm 264 W/m2
19:10 29.4 °C 14.4 °C 1011.2 hPa NW 3.2 km/h 4.8 km/h 40% 0.0 mm 274 W/m2
19:15 29.6 °C 15 °C 1011.2 hPa SW 9.7 km/h 14.5 km/h 41% 0.0 mm 285 W/m2
19:20 29.3 °C 14.3 °C 1010.8 hPa WSW 6.4 km/h 24.1 km/h 40% 0.0 mm 290 W/m2
19:25 29 °C 14.4 °C 1010.8 hPa WSW 7.9 km/h 16.1 km/h 41% 0.0 mm 248 W/m2
19:30 28.9 °C 14.3 °C 1010.8 hPa West 4.7 km/h 20.9 km/h 41% 0.0 mm 279 W/m2
19:35 29 °C 14.4 °C 1010.8 hPa WSW 6.4 km/h 16.1 km/h 41% 0.0 mm 260 W/m2
19:40 29 °C 14.4 °C 1010.8 hPa NW 1.4 km/h 14.5 km/h 41% 0.0 mm 243 W/m2
19:45 29 °C 14.4 °C 1010.8 hPa WNW 3.2 km/h 11.3 km/h 41% 0.0 mm 229 W/m2
19:50 29.1 °C 14.9 °C 1010.8 hPa WSW 4.7 km/h 14.5 km/h 42% 0.0 mm 183 W/m2
19:55 29.2 °C 15 °C 1010.8 hPa West 6.4 km/h 11.3 km/h 42% 0.0 mm 169 W/m2
20:00 29.1 °C 14.5 °C 1010.8 hPa NW 6.4 km/h 8 km/h 41% 0.0 mm 100 W/m2
20:05 28.8 °C 14.6 °C 1010.8 hPa WNW 6.4 km/h 6.4 km/h 42% 0.0 mm 163 W/m2
20:10 28.7 °C 14.5 °C 1010.8 hPa West 11.1 km/h 12.9 km/h 42% 0.0 mm 142 W/m2
20:15 28.5 °C 14.3 °C 1010.8 hPa West 4.7 km/h 9.7 km/h 42% 0.0 mm 60 W/m2
20:20 28.1 °C 14.7 °C 1010.8 hPa WNW 6.4 km/h 8 km/h 44% 0.0 mm 69 W/m2
20:25 27.9 °C 14.5 °C 1010.8 hPa NW 3.2 km/h 4.8 km/h 44% 0.0 mm 84 W/m2
20:30 27.8 °C 14.8 °C 1010.8 hPa WSW 3.2 km/h 4.8 km/h 45% 0.0 mm 49 W/m2
20:36 27.6 °C 14.9 °C 1010.8 hPa West 1.4 km/h 3.2 km/h 46% 0.0 mm 47 W/m2
20:41 27.4 °C 14.8 °C 1010.8 hPa WNW 1.4 km/h 4.8 km/h 46% 0.0 mm 72 W/m2
20:46 27.4 °C 15.7 °C 1010.5 hPa Calm   1.6 km/h 49% 0.0 mm 65 W/m2
20:51 27.4 °C 15.4 °C 1010.5 hPa West 1.4 km/h 3.2 km/h 48% 0.0 mm 63 W/m2
20:56 27.4 °C 15.4 °C 1010.5 hPa West 1.4 km/h 1.6 km/h 48% 0.0 mm 58 W/m2
21:01 27.4 °C 15.7 °C 1010.5 hPa West 3.2 km/h 3.2 km/h 49% 0.0 mm 39 W/m2
21:06 27.3 °C 16 °C 1010.5 hPa Calm   1.6 km/h 50% 0.0 mm 26 W/m2
21:11 27 °C 16.3 °C 1010.5 hPa Calm   1.6 km/h 52% 0.0 mm 19 W/m2
21:16 26.6 °C 15.9 °C 1010.5 hPa Calm     52% 0.0 mm 16 W/m2
21:21 26.1 °C 15.8 °C 1010.5 hPa West 1.4 km/h 1.6 km/h 53% 0.0 mm 12 W/m2
21:26 25.7 °C 15.7 °C 1010.5 hPa West 1.4 km/h 3.2 km/h 54% 0.0 mm 9 W/m2
21:31 25.3 °C 15.3 °C 1010.5 hPa Calm   1.6 km/h 54% 0.0 mm 7 W/m2
21:36 24.8 °C 15.4 °C 1010.5 hPa Calm     56% 0.0 mm 5 W/m2
21:41 24.5 °C 15.1 °C 1010.5 hPa SW 1.4 km/h 3.2 km/h 56% 0.0 mm 0 W/m2
21:46 24.2 °C 14.9 °C 1010.5 hPa Calm   1.6 km/h 56% 0.0 mm 0 W/m2
21:51 24 °C 15 °C 1010.5 hPa Calm     57% 0.0 mm 0 W/m2
21:56 23.8 °C 15 °C 1010.5 hPa Calm     58% 0.0 mm 0 W/m2
22:01 23.6 °C 15.1 °C 1010.5 hPa Calm     59% 0.0 mm 0 W/m2
22:06 23.5 °C 15.3 °C 1010.5 hPa Calm     60% 0.0 mm 0 W/m2
22:11 23.3 °C 15.1 °C 1010.5 hPa Calm     60% 0.0 mm 0 W/m2
22:16 23.1 °C 15.4 °C 1010.5 hPa Calm     62% 0.0 mm 0 W/m2
22:21 22.9 °C 15.2 °C 1010.5 hPa Calm     62% 0.0 mm 0 W/m2
22:26 22.7 °C 15.3 °C 1010.5 hPa Calm     63% 0.0 mm 0 W/m2
22:31 22.5 °C 14.9 °C 1010.5 hPa Calm     62% 0.0 mm 0 W/m2
22:36 22.3 °C 14.9 °C 1010.5 hPa Calm     63% 0.0 mm 0 W/m2
22:41 22.1 °C 15 °C 1010.5 hPa SW 3.2 km/h 3.2 km/h 64% 0.0 mm 0 W/m2
22:46 22 °C 14.9 °C 1010.2 hPa SW 3.2 km/h 3.2 km/h 64% 0.0 mm 0 W/m2
22:51 21.9 °C 15 °C 1010.2 hPa SW 1.4 km/h 1.6 km/h 65% 0.0 mm 0 W/m2
22:56 21.8 °C 14.9 °C 1010.2 hPa Calm   3.2 km/h 65% 0.0 mm 0 W/m2
23:01 21.8 °C 14.9 °C 1010.2 hPa Calm   1.6 km/h 65% 0.0 mm 0 W/m2
23:06 21.7 °C 14.8 °C 1010.2 hPa Calm   3.2 km/h 65% 0.0 mm 0 W/m2
23:11 21.7 °C 14.8 °C 1010.2 hPa Calm   3.2 km/h 65% 0.0 mm 0 W/m2
23:16 21.8 °C 14.7 °C 1010.2 hPa SSE 1.4 km/h 3.2 km/h 64% 0.0 mm 0 W/m2
23:21 21.8 °C 14.9 °C 1010.2 hPa Calm     65% 0.0 mm 0 W/m2
23:26 21.9 °C 15 °C 1010.2 hPa Calm   3.2 km/h 65% 0.0 mm 0 W/m2
23:31 21.8 °C 14.9 °C 1010.2 hPa Calm     65% 0.0 mm 0 W/m2
23:36 21.8 °C 14.9 °C 1009.8 hPa Calm     65% 0.0 mm 0 W/m2
23:41 21.7 °C 15.1 °C 1009.8 hPa Calm     66% 0.0 mm 0 W/m2
23:46 21.6 °C 15 °C 1009.8 hPa Calm     66% 0.0 mm 0 W/m2
23:51 21.5 °C 14.9 °C 1009.8 hPa Calm     66% 0.0 mm 0 W/m2
23:56 21.4 °C 14.8 °C 1009.8 hPa Calm     66% 0.0 mm 0 W/m2
Juneau County Weather
Compliments of Weather Underground - 4 mb